sensor_id;sensor_type;location;lat;lon;timestamp;P1;durP1;ratioP1;P2;durP2;ratioP2
76379;SDS011;65201;21.060;105.826;2023-04-24T00:00:50;25.25;;;18.70;;
76379;SDS011;65201;21.060;105.826;2023-04-24T00:03:17;28.10;;;19.13;;
76379;SDS011;65201;21.060;105.826;2023-04-24T00:05:46;25.42;;;18.60;;
76379;SDS011;65201;21.060;105.826;2023-04-24T00:08:12;23.05;;;18.48;;
76379;SDS011;65201;21.060;105.826;2023-04-24T00:10:38;25.90;;;17.73;;
76379;SDS011;65201;21.060;105.826;2023-04-24T00:13:04;27.42;;;18.27;;
76379;SDS011;65201;21.060;105.826;2023-04-24T00:15:30;28.48;;;18.13;;
76379;SDS011;65201;21.060;105.826;2023-04-24T00:17:56;31.02;;;18.17;;
76379;SDS011;65201;21.060;105.826;2023-04-24T00:20:23;26.85;;;18.23;;
76379;SDS011;65201;21.060;105.826;2023-04-24T00:22:49;26.30;;;18.43;;
76379;SDS011;65201;21.060;105.826;2023-04-24T00:25:15;26.42;;;17.83;;
76379;SDS011;65201;21.060;105.826;2023-04-24T00:27:41;26.35;;;18.33;;
76379;SDS011;65201;21.060;105.826;2023-04-24T00:30:07;24.55;;;17.50;;
76379;SDS011;65201;21.060;105.826;2023-04-24T00:32:33;26.00;;;17.40;;
76379;SDS011;65201;21.060;105.826;2023-04-24T00:34:59;24.43;;;16.73;;
76379;SDS011;65201;21.060;105.826;2023-04-24T00:37:25;25.48;;;17.40;;
76379;SDS011;65201;21.060;105.826;2023-04-24T00:39:51;23.15;;;17.63;;
76379;SDS011;65201;21.060;105.826;2023-04-24T00:42:17;25.95;;;17.60;;
76379;SDS011;65201;21.060;105.826;2023-04-24T00:44:43;26.70;;;17.35;;
76379;SDS011;65201;21.060;105.826;2023-04-24T00:47:10;26.17;;;17.90;;
76379;SDS011;65201;21.060;105.826;2023-04-24T00:49:36;29.58;;;16.63;;
76379;SDS011;65201;21.060;105.826;2023-04-24T00:52:02;29.25;;;17.48;;
76379;SDS011;65201;21.060;105.826;2023-04-24T00:54:32;28.35;;;18.08;;
76379;SDS011;65201;21.060;105.826;2023-04-24T00:56:58;27.98;;;17.95;;
76379;SDS011;65201;21.060;105.826;2023-04-24T00:59:25;26.07;;;17.87;;
76379;SDS011;65201;21.060;105.826;2023-04-24T01:01:51;27.95;;;17.83;;
76379;SDS011;65201;21.060;105.826;2023-04-24T01:04:18;26.73;;;17.85;;
76379;SDS011;65201;21.060;105.826;2023-04-24T01:06:44;30.38;;;18.08;;
76379;SDS011;65201;21.060;105.826;2023-04-24T01:09:11;29.15;;;18.33;;
76379;SDS011;65201;21.060;105.826;2023-04-24T01:11:37;28.20;;;17.87;;
76379;SDS011;65201;21.060;105.826;2023-04-24T01:14:03;28.77;;;17.67;;
76379;SDS011;65201;21.060;105.826;2023-04-24T01:16:30;24.50;;;17.20;;
76379;SDS011;65201;21.060;105.826;2023-04-24T01:18:56;26.92;;;17.88;;
76379;SDS011;65201;21.060;105.826;2023-04-24T01:21:22;27.27;;;17.63;;
76379;SDS011;65201;21.060;105.826;2023-04-24T01:23:49;24.43;;;17.43;;
76379;SDS011;65201;21.060;105.826;2023-04-24T01:26:16;25.92;;;17.45;;
76379;SDS011;65201;21.060;105.826;2023-04-24T01:28:42;24.60;;;17.60;;
76379;SDS011;65201;21.060;105.826;2023-04-24T01:31:08;24.05;;;17.25;;
76379;SDS011;65201;21.060;105.826;2023-04-24T01:33:35;25.92;;;17.55;;
76379;SDS011;65201;21.060;105.826;2023-04-24T01:36:01;27.63;;;17.80;;
76379;SDS011;65201;21.060;105.826;2023-04-24T01:38:27;25.23;;;17.42;;
76379;SDS011;65201;21.060;105.826;2023-04-24T01:40:53;27.65;;;17.83;;
76379;SDS011;65201;21.060;105.826;2023-04-24T01:43:19;27.52;;;17.40;;
76379;SDS011;65201;21.060;105.826;2023-04-24T01:45:45;26.38;;;17.42;;
76379;SDS011;65201;21.060;105.826;2023-04-24T01:48:11;25.57;;;16.80;;
76379;SDS011;65201;21.060;105.826;2023-04-24T01:50:37;24.15;;;17.45;;
76379;SDS011;65201;21.060;105.826;2023-04-24T01:53:03;23.63;;;16.65;;
76379;SDS011;65201;21.060;105.826;2023-04-24T01:55:30;24.27;;;17.48;;
76379;SDS011;65201;21.060;105.826;2023-04-24T01:57:56;24.13;;;16.88;;
76379;SDS011;65201;21.060;105.826;2023-04-24T02:00:22;22.20;;;16.93;;
76379;SDS011;65201;21.060;105.826;2023-04-24T02:02:50;23.00;;;16.92;;
76379;SDS011;65201;21.060;105.826;2023-04-24T02:05:16;23.75;;;17.23;;
76379;SDS011;65201;21.060;105.826;2023-04-24T02:07:42;23.63;;;16.88;;
76379;SDS011;65201;21.060;105.826;2023-04-24T02:10:08;22.73;;;17.80;;
76379;SDS011;65201;21.060;105.826;2023-04-24T02:12:34;26.40;;;17.67;;
76379;SDS011;65201;21.060;105.826;2023-04-24T02:15:00;24.20;;;16.98;;
76379;SDS011;65201;21.060;105.826;2023-04-24T02:17:26;26.13;;;17.95;;
76379;SDS011;65201;21.060;105.826;2023-04-24T02:19:52;24.27;;;17.25;;
76379;SDS011;65201;21.060;105.826;2023-04-24T02:22:18;27.90;;;19.33;;
76379;SDS011;65201;21.060;105.826;2023-04-24T02:24:44;23.97;;;18.20;;
76379;SDS011;65201;21.060;105.826;2023-04-24T02:27:10;28.42;;;18.67;;
76379;SDS011;65201;21.060;105.826;2023-04-24T02:29:39;30.98;;;19.17;;
76379;SDS011;65201;21.060;105.826;2023-04-24T02:32:05;26.13;;;17.77;;
76379;SDS011;65201;21.060;105.826;2023-04-24T02:34:31;23.05;;;18.83;;
76379;SDS011;65201;21.060;105.826;2023-04-24T02:36:57;25.63;;;18.33;;
76379;SDS011;65201;21.060;105.826;2023-04-24T02:39:23;25.02;;;17.38;;
76379;SDS011;65201;21.060;105.826;2023-04-24T02:41:49;26.63;;;18.50;;
76379;SDS011;65201;21.060;105.826;2023-04-24T02:44:16;25.40;;;18.05;;
76379;SDS011;65201;21.060;105.826;2023-04-24T02:46:42;24.52;;;17.98;;
76379;SDS011;65201;21.060;105.826;2023-04-24T02:49:09;25.13;;;17.30;;
76379;SDS011;65201;21.060;105.826;2023-04-24T02:51:35;24.65;;;18.58;;
76379;SDS011;65201;21.060;105.826;2023-04-24T02:54:03;23.20;;;17.90;;
76379;SDS011;65201;21.060;105.826;2023-04-24T02:56:29;22.23;;;17.48;;
76379;SDS011;65201;21.060;105.826;2023-04-24T02:58:55;21.98;;;16.98;;
76379;SDS011;65201;21.060;105.826;2023-04-24T03:01:21;22.17;;;17.50;;
76379;SDS011;65201;21.060;105.826;2023-04-24T03:03:47;21.02;;;17.08;;
76379;SDS011;65201;21.060;105.826;2023-04-24T03:06:13;22.83;;;17.45;;
76379;SDS011;65201;21.060;105.826;2023-04-24T03:08:39;24.85;;;16.83;;
76379;SDS011;65201;21.060;105.826;2023-04-24T03:11:06;23.13;;;16.92;;
76379;SDS011;65201;21.060;105.826;2023-04-24T03:13:32;21.67;;;16.93;;
76379;SDS011;65201;21.060;105.826;2023-04-24T03:15:58;22.80;;;17.02;;
76379;SDS011;65201;21.060;105.826;2023-04-24T03:18:24;22.08;;;17.35;;
76379;SDS011;65201;21.060;105.826;2023-04-24T03:20:51;21.38;;;16.17;;
76379;SDS011;65201;21.060;105.826;2023-04-24T03:23:17;22.20;;;17.15;;
76379;SDS011;65201;21.060;105.826;2023-04-24T03:25:43;22.30;;;17.30;;
76379;SDS011;65201;21.060;105.826;2023-04-24T03:28:09;21.83;;;17.20;;
76379;SDS011;65201;21.060;105.826;2023-04-24T03:30:35;22.23;;;17.20;;
76379;SDS011;65201;21.060;105.826;2023-04-24T03:33:01;25.88;;;16.92;;
76379;SDS011;65201;21.060;105.826;2023-04-24T03:35:27;22.70;;;16.52;;
76379;SDS011;65201;21.060;105.826;2023-04-24T03:37:53;21.27;;;16.50;;
76379;SDS011;65201;21.060;105.826;2023-04-24T03:40:20;22.38;;;16.73;;
76379;SDS011;65201;21.060;105.826;2023-04-24T03:42:46;21.80;;;16.13;;
76379;SDS011;65201;21.060;105.826;2023-04-24T03:45:12;22.48;;;16.55;;
76379;SDS011;65201;21.060;105.826;2023-04-24T03:47:38;20.55;;;16.80;;
76379;SDS011;65201;21.060;105.826;2023-04-24T03:50:04;20.77;;;15.60;;
76379;SDS011;65201;21.060;105.826;2023-04-24T03:52:30;23.48;;;16.67;;
76379;SDS011;65201;21.060;105.826;2023-04-24T03:54:56;21.15;;;16.23;;
76379;SDS011;65201;21.060;105.826;2023-04-24T03:57:22;20.73;;;15.48;;
76379;SDS011;65201;21.060;105.826;2023-04-24T03:59:49;23.92;;;16.77;;
76379;SDS011;65201;21.060;105.826;2023-04-24T04:02:15;21.13;;;16.07;;
76379;SDS011;65201;21.060;105.826;2023-04-24T04:04:41;24.65;;;16.17;;
76379;SDS011;65201;21.060;105.826;2023-04-24T04:07:07;20.90;;;16.48;;
76379;SDS011;65201;21.060;105.826;2023-04-24T04:09:33;20.17;;;16.50;;
76379;SDS011;65201;21.060;105.826;2023-04-24T04:12:02;19.98;;;15.65;;
76379;SDS011;65201;21.060;105.826;2023-04-24T04:14:28;22.27;;;16.17;;
76379;SDS011;65201;21.060;105.826;2023-04-24T04:16:54;21.90;;;16.20;;
76379;SDS011;65201;21.060;105.826;2023-04-24T04:19:20;19.20;;;16.13;;
76379;SDS011;65201;21.060;105.826;2023-04-24T04:21:46;19.85;;;16.08;;
76379;SDS011;65201;21.060;105.826;2023-04-24T04:24:18;21.48;;;16.60;;
76379;SDS011;65201;21.060;105.826;2023-04-24T04:26:46;22.63;;;17.13;;
76379;SDS011;65201;21.060;105.826;2023-04-24T04:29:13;21.33;;;16.60;;
76379;SDS011;65201;21.060;105.826;2023-04-24T04:31:39;21.27;;;16.05;;
76379;SDS011;65201;21.060;105.826;2023-04-24T04:34:05;20.27;;;16.20;;
76379;SDS011;65201;21.060;105.826;2023-04-24T04:36:32;21.90;;;15.98;;
76379;SDS011;65201;21.060;105.826;2023-04-24T04:39:02;20.53;;;15.83;;
76379;SDS011;65201;21.060;105.826;2023-04-24T04:41:29;20.25;;;15.90;;
76379;SDS011;65201;21.060;105.826;2023-04-24T04:43:55;20.27;;;16.45;;
76379;SDS011;65201;21.060;105.826;2023-04-24T04:46:24;20.08;;;15.98;;
76379;SDS011;65201;21.060;105.826;2023-04-24T04:48:52;19.02;;;15.88;;
76379;SDS011;65201;21.060;105.826;2023-04-24T04:51:18;18.03;;;14.83;;
76379;SDS011;65201;21.060;105.826;2023-04-24T04:53:44;19.88;;;14.88;;
76379;SDS011;65201;21.060;105.826;2023-04-24T04:56:10;20.42;;;15.57;;
76379;SDS011;65201;21.060;105.826;2023-04-24T04:58:36;18.50;;;15.05;;
76379;SDS011;65201;21.060;105.826;2023-04-24T05:01:02;17.60;;;14.93;;
76379;SDS011;65201;21.060;105.826;2023-04-24T05:03:28;19.60;;;14.90;;
76379;SDS011;65201;21.060;105.826;2023-04-24T05:05:54;20.70;;;16.05;;
76379;SDS011;65201;21.060;105.826;2023-04-24T05:08:20;18.13;;;15.27;;
76379;SDS011;65201;21.060;105.826;2023-04-24T05:10:46;19.40;;;15.15;;
76379;SDS011;65201;21.060;105.826;2023-04-24T05:13:12;19.98;;;15.68;;
76379;SDS011;65201;21.060;105.826;2023-04-24T05:15:38;19.63;;;15.03;;
76379;SDS011;65201;21.060;105.826;2023-04-24T05:18:04;19.60;;;15.15;;
76379;SDS011;65201;21.060;105.826;2023-04-24T05:20:34;19.95;;;15.10;;
76379;SDS011;65201;21.060;105.826;2023-04-24T05:23:00;19.08;;;15.40;;
76379;SDS011;65201;21.060;105.826;2023-04-24T05:25:26;19.30;;;14.80;;
76379;SDS011;65201;21.060;105.826;2023-04-24T05:27:52;18.60;;;14.67;;
76379;SDS011;65201;21.060;105.826;2023-04-24T05:30:18;16.75;;;14.50;;
76379;SDS011;65201;21.060;105.826;2023-04-24T05:32:45;18.48;;;15.23;;
76379;SDS011;65201;21.060;105.826;2023-04-24T05:35:11;19.90;;;14.75;;
76379;SDS011;65201;21.060;105.826;2023-04-24T05:37:37;18.77;;;15.10;;
76379;SDS011;65201;21.060;105.826;2023-04-24T05:40:03;18.63;;;14.67;;
76379;SDS011;65201;21.060;105.826;2023-04-24T05:42:31;17.73;;;14.45;;
76379;SDS011;65201;21.060;105.826;2023-04-24T05:44:57;18.30;;;14.73;;
76379;SDS011;65201;21.060;105.826;2023-04-24T05:47:23;19.70;;;15.48;;
76379;SDS011;65201;21.060;105.826;2023-04-24T05:49:49;19.02;;;15.60;;
76379;SDS011;65201;21.060;105.826;2023-04-24T05:52:15;19.70;;;15.33;;
76379;SDS011;65201;21.060;105.826;2023-04-24T05:54:41;20.88;;;15.63;;
76379;SDS011;65201;21.060;105.826;2023-04-24T05:57:07;23.30;;;15.93;;
76379;SDS011;65201;21.060;105.826;2023-04-24T05:59:35;18.90;;;15.55;;
76379;SDS011;65201;21.060;105.826;2023-04-24T06:02:01;21.00;;;16.10;;
76379;SDS011;65201;21.060;105.826;2023-04-24T06:04:27;20.48;;;16.73;;
76379;SDS011;65201;21.060;105.826;2023-04-24T06:06:53;21.92;;;17.00;;
76379;SDS011;65201;21.060;105.826;2023-04-24T06:09:21;23.10;;;16.58;;
76379;SDS011;65201;21.060;105.826;2023-04-24T06:11:48;21.17;;;16.30;;
76379;SDS011;65201;21.060;105.826;2023-04-24T06:14:14;24.10;;;16.87;;
76379;SDS011;65201;21.060;105.826;2023-04-24T06:16:41;21.08;;;16.27;;
76379;SDS011;65201;21.060;105.826;2023-04-24T06:19:08;22.48;;;16.27;;
76379;SDS011;65201;21.060;105.826;2023-04-24T06:21:34;23.48;;;17.70;;
76379;SDS011;65201;21.060;105.826;2023-04-24T06:24:00;23.25;;;17.15;;
76379;SDS011;65201;21.060;105.826;2023-04-24T06:26:26;20.30;;;16.10;;
76379;SDS011;65201;21.060;105.826;2023-04-24T06:28:52;21.83;;;17.45;;
76379;SDS011;65201;21.060;105.826;2023-04-24T06:31:23;21.67;;;16.58;;
76379;SDS011;65201;21.060;105.826;2023-04-24T06:33:49;24.13;;;17.33;;
76379;SDS011;65201;21.060;105.826;2023-04-24T06:36:16;21.67;;;16.98;;
76379;SDS011;65201;21.060;105.826;2023-04-24T06:38:42;22.70;;;17.60;;
76379;SDS011;65201;21.060;105.826;2023-04-24T06:41:09;21.00;;;16.90;;
76379;SDS011;65201;21.060;105.826;2023-04-24T06:43:35;22.33;;;16.90;;
76379;SDS011;65201;21.060;105.826;2023-04-24T06:46:01;22.38;;;17.77;;
76379;SDS011;65201;21.060;105.826;2023-04-24T06:48:28;22.20;;;18.08;;
76379;SDS011;65201;21.060;105.826;2023-04-24T06:50:54;24.17;;;18.47;;
76379;SDS011;65201;21.060;105.826;2023-04-24T06:53:20;24.10;;;18.10;;
76379;SDS011;65201;21.060;105.826;2023-04-24T06:55:46;25.85;;;18.73;;
76379;SDS011;65201;21.060;105.826;2023-04-24T06:58:13;23.58;;;17.85;;
76379;SDS011;65201;21.060;105.826;2023-04-24T07:00:41;25.38;;;18.52;;
76379;SDS011;65201;21.060;105.826;2023-04-24T07:03:07;23.40;;;18.40;;
76379;SDS011;65201;21.060;105.826;2023-04-24T07:05:33;23.50;;;18.52;;
76379;SDS011;65201;21.060;105.826;2023-04-24T07:08:00;28.95;;;19.48;;
76379;SDS011;65201;21.060;105.826;2023-04-24T07:10:27;26.70;;;19.98;;
76379;SDS011;65201;21.060;105.826;2023-04-24T07:12:54;25.25;;;18.23;;
76379;SDS011;65201;21.060;105.826;2023-04-24T07:15:21;24.60;;;18.87;;
76379;SDS011;65201;21.060;105.826;2023-04-24T07:17:47;23.60;;;17.92;;
76379;SDS011;65201;21.060;105.826;2023-04-24T07:20:13;25.63;;;19.30;;
76379;SDS011;65201;21.060;105.826;2023-04-24T07:22:40;24.55;;;17.95;;
76379;SDS011;65201;21.060;105.826;2023-04-24T07:25:06;22.42;;;18.08;;
76379;SDS011;65201;21.060;105.826;2023-04-24T07:27:32;22.47;;;18.40;;
76379;SDS011;65201;21.060;105.826;2023-04-24T07:29:58;26.58;;;19.15;;
76379;SDS011;65201;21.060;105.826;2023-04-24T07:32:24;23.23;;;18.10;;
76379;SDS011;65201;21.060;105.826;2023-04-24T07:34:50;23.67;;;18.20;;
76379;SDS011;65201;21.060;105.826;2023-04-24T07:37:16;24.58;;;18.50;;
76379;SDS011;65201;21.060;105.826;2023-04-24T07:39:42;25.13;;;19.00;;
76379;SDS011;65201;21.060;105.826;2023-04-24T07:42:08;25.80;;;18.63;;
76379;SDS011;65201;21.060;105.826;2023-04-24T07:44:34;24.92;;;19.00;;
76379;SDS011;65201;21.060;105.826;2023-04-24T07:47:01;26.38;;;18.70;;
76379;SDS011;65201;21.060;105.826;2023-04-24T07:49:27;24.20;;;18.35;;
76379;SDS011;65201;21.060;105.826;2023-04-24T07:51:53;23.17;;;18.67;;
76379;SDS011;65201;21.060;105.826;2023-04-24T07:54:19;27.30;;;19.48;;
76379;SDS011;65201;21.060;105.826;2023-04-24T07:56:46;25.73;;;18.40;;
76379;SDS011;65201;21.060;105.826;2023-04-24T07:59:12;27.90;;;19.13;;
76379;SDS011;65201;21.060;105.826;2023-04-24T08:01:38;24.65;;;18.80;;
76379;SDS011;65201;21.060;105.826;2023-04-24T08:04:04;24.33;;;19.07;;
76379;SDS011;65201;21.060;105.826;2023-04-24T08:06:31;25.38;;;19.10;;
76379;SDS011;65201;21.060;105.826;2023-04-24T08:08:57;27.52;;;19.65;;
76379;SDS011;65201;21.060;105.826;2023-04-24T08:11:24;28.75;;;19.38;;
76379;SDS011;65201;21.060;105.826;2023-04-24T08:13:50;22.70;;;18.42;;
76379;SDS011;65201;21.060;105.826;2023-04-24T08:16:17;27.03;;;18.70;;
76379;SDS011;65201;21.060;105.826;2023-04-24T08:18:43;23.17;;;18.48;;
76379;SDS011;65201;21.060;105.826;2023-04-24T08:21:09;24.73;;;18.52;;
76379;SDS011;65201;21.060;105.826;2023-04-24T08:23:35;26.63;;;19.08;;
76379;SDS011;65201;21.060;105.826;2023-04-24T08:26:01;24.55;;;18.13;;
76379;SDS011;65201;21.060;105.826;2023-04-24T08:28:30;27.07;;;18.73;;
76379;SDS011;65201;21.060;105.826;2023-04-24T08:30:56;23.00;;;18.30;;
76379;SDS011;65201;21.060;105.826;2023-04-24T08:33:22;25.75;;;18.50;;
76379;SDS011;65201;21.060;105.826;2023-04-24T08:35:48;25.38;;;18.75;;
76379;SDS011;65201;21.060;105.826;2023-04-24T08:38:15;24.05;;;18.77;;
76379;SDS011;65201;21.060;105.826;2023-04-24T08:40:41;27.43;;;18.67;;
76379;SDS011;65201;21.060;105.826;2023-04-24T08:43:07;24.50;;;18.15;;
76379;SDS011;65201;21.060;105.826;2023-04-24T08:45:33;29.92;;;18.70;;
76379;SDS011;65201;21.060;105.826;2023-04-24T08:47:59;27.55;;;19.63;;
76379;SDS011;65201;21.060;105.826;2023-04-24T08:50:26;28.35;;;18.85;;
76379;SDS011;65201;21.060;105.826;2023-04-24T08:52:53;25.17;;;18.33;;
76379;SDS011;65201;21.060;105.826;2023-04-24T08:55:19;26.10;;;19.85;;
76379;SDS011;65201;21.060;105.826;2023-04-24T08:57:48;26.95;;;19.88;;
76379;SDS011;65201;21.060;105.826;2023-04-24T09:00:15;26.30;;;19.38;;
76379;SDS011;65201;21.060;105.826;2023-04-24T09:02:42;27.27;;;19.50;;
76379;SDS011;65201;21.060;105.826;2023-04-24T09:05:12;28.27;;;19.63;;
76379;SDS011;65201;21.060;105.826;2023-04-24T09:07:39;29.63;;;20.08;;
76379;SDS011;65201;21.060;105.826;2023-04-24T09:10:05;24.75;;;19.63;;
76379;SDS011;65201;21.060;105.826;2023-04-24T09:12:32;27.58;;;19.58;;
76379;SDS011;65201;21.060;105.826;2023-04-24T09:15:00;23.40;;;19.55;;
76379;SDS011;65201;21.060;105.826;2023-04-24T09:17:26;28.23;;;19.77;;
76379;SDS011;65201;21.060;105.826;2023-04-24T09:19:53;30.95;;;20.63;;
76379;SDS011;65201;21.060;105.826;2023-04-24T09:22:19;23.95;;;19.77;;
76379;SDS011;65201;21.060;105.826;2023-04-24T09:24:48;27.52;;;19.83;;
76379;SDS011;65201;21.060;105.826;2023-04-24T09:27:25;26.33;;;19.50;;
76379;SDS011;65201;21.060;105.826;2023-04-24T09:29:54;26.73;;;20.53;;
76379;SDS011;65201;21.060;105.826;2023-04-24T09:32:21;26.80;;;19.83;;
76379;SDS011;65201;21.060;105.826;2023-04-24T09:34:47;30.10;;;20.60;;
76379;SDS011;65201;21.060;105.826;2023-04-24T09:37:29;28.23;;;20.63;;
76379;SDS011;65201;21.060;105.826;2023-04-24T09:40:08;27.58;;;20.80;;
76379;SDS011;65201;21.060;105.826;2023-04-24T09:42:36;28.07;;;20.63;;
76379;SDS011;65201;21.060;105.826;2023-04-24T09:45:02;26.48;;;20.50;;
76379;SDS011;65201;21.060;105.826;2023-04-24T09:47:35;27.90;;;20.52;;
76379;SDS011;65201;21.060;105.826;2023-04-24T09:50:08;28.23;;;20.15;;
76379;SDS011;65201;21.060;105.826;2023-04-24T09:52:34;27.63;;;20.27;;
76379;SDS011;65201;21.060;105.826;2023-04-24T09:55:00;27.53;;;20.77;;
76379;SDS011;65201;21.060;105.826;2023-04-24T09:57:26;26.47;;;19.97;;
76379;SDS011;65201;21.060;105.826;2023-04-24T09:59:53;28.02;;;20.80;;
76379;SDS011;65201;21.060;105.826;2023-04-24T10:02:19;26.20;;;21.23;;
76379;SDS011;65201;21.060;105.826;2023-04-24T10:04:55;40.15;;;24.63;;
76379;SDS011;65201;21.060;105.826;2023-04-24T10:07:21;82.18;;;38.22;;
76379;SDS011;65201;21.060;105.826;2023-04-24T10:09:48;66.10;;;32.08;;
76379;SDS011;65201;21.060;105.826;2023-04-24T10:12:14;50.60;;;29.15;;
76379;SDS011;65201;21.060;105.826;2023-04-24T10:14:40;61.15;;;29.23;;
76379;SDS011;65201;21.060;105.826;2023-04-24T10:17:06;51.75;;;27.63;;
76379;SDS011;65201;21.060;105.826;2023-04-24T10:19:33;51.53;;;28.50;;
76379;SDS011;65201;21.060;105.826;2023-04-24T10:22:01;48.70;;;27.47;;
76379;SDS011;65201;21.060;105.826;2023-04-24T10:24:27;45.63;;;27.45;;
76379;SDS011;65201;21.060;105.826;2023-04-24T10:26:54;46.50;;;27.67;;
76379;SDS011;65201;21.060;105.826;2023-04-24T10:29:22;54.20;;;27.98;;
76379;SDS011;65201;21.060;105.826;2023-04-24T10:31:48;53.87;;;27.37;;
76379;SDS011;65201;21.060;105.826;2023-04-24T10:34:15;45.50;;;26.67;;
76379;SDS011;65201;21.060;105.826;2023-04-24T10:36:43;44.60;;;26.23;;
76379;SDS011;65201;21.060;105.826;2023-04-24T10:39:11;43.55;;;26.02;;
76379;SDS011;65201;21.060;105.826;2023-04-24T10:41:38;47.47;;;26.63;;
76379;SDS011;65201;21.060;105.826;2023-04-24T10:44:08;46.63;;;25.48;;
76379;SDS011;65201;21.060;105.826;2023-04-24T10:46:35;43.85;;;25.85;;
76379;SDS011;65201;21.060;105.826;2023-04-24T10:49:05;45.33;;;25.50;;
76379;SDS011;65201;21.060;105.826;2023-04-24T10:54:25;42.90;;;25.33;;
76379;SDS011;65201;21.060;105.826;2023-04-24T10:56:52;46.42;;;25.52;;
76379;SDS011;65201;21.060;105.826;2023-04-24T10:59:24;45.05;;;25.75;;
76379;SDS011;65201;21.060;105.826;2023-04-24T11:01:54;50.50;;;25.20;;
76379;SDS011;65201;21.060;105.826;2023-04-24T11:04:29;39.92;;;23.27;;
76379;SDS011;65201;21.060;105.826;2023-04-24T11:06:57;47.90;;;24.08;;
76379;SDS011;65201;21.060;105.826;2023-04-24T11:09:24;42.80;;;23.30;;
76379;SDS011;65201;21.060;105.826;2023-04-24T11:11:51;42.95;;;23.50;;
76379;SDS011;65201;21.060;105.826;2023-04-24T11:14:28;40.83;;;22.80;;
76379;SDS011;65201;21.060;105.826;2023-04-24T11:16:54;41.15;;;23.25;;
76379;SDS011;65201;21.060;105.826;2023-04-24T11:19:21;39.45;;;22.85;;
76379;SDS011;65201;21.060;105.826;2023-04-24T11:22:02;39.10;;;22.42;;
76379;SDS011;65201;21.060;105.826;2023-04-24T11:24:29;36.00;;;22.83;;
76379;SDS011;65201;21.060;105.826;2023-04-24T11:26:57;36.80;;;22.70;;
76379;SDS011;65201;21.060;105.826;2023-04-24T11:29:38;36.58;;;22.00;;
76379;SDS011;65201;21.060;105.826;2023-04-24T11:32:17;36.17;;;22.10;;
76379;SDS011;65201;21.060;105.826;2023-04-24T11:34:51;41.10;;;21.17;;
76379;SDS011;65201;21.060;105.826;2023-04-24T11:37:18;35.65;;;22.13;;
76379;SDS011;65201;21.060;105.826;2023-04-24T11:39:44;38.70;;;21.37;;
76379;SDS011;65201;21.060;105.826;2023-04-24T11:42:10;34.47;;;21.50;;
76379;SDS011;65201;21.060;105.826;2023-04-24T11:44:36;30.48;;;21.50;;
76379;SDS011;65201;21.060;105.826;2023-04-24T11:47:05;31.13;;;21.38;;
76379;SDS011;65201;21.060;105.826;2023-04-24T11:49:32;38.38;;;21.70;;
76379;SDS011;65201;21.060;105.826;2023-04-24T11:51:59;36.23;;;21.60;;
76379;SDS011;65201;21.060;105.826;2023-04-24T11:54:29;33.95;;;20.70;;
76379;SDS011;65201;21.060;105.826;2023-04-24T11:56:55;37.15;;;21.23;;
76379;SDS011;65201;21.060;105.826;2023-04-24T11:59:22;36.47;;;20.42;;
76379;SDS011;65201;21.060;105.826;2023-04-24T12:01:48;34.33;;;21.00;;
76379;SDS011;65201;21.060;105.826;2023-04-24T12:04:16;34.57;;;20.40;;
76379;SDS011;65201;21.060;105.826;2023-04-24T12:06:58;30.80;;;19.50;;
76379;SDS011;65201;21.060;105.826;2023-04-24T12:09:25;30.48;;;20.52;;
76379;SDS011;65201;21.060;105.826;2023-04-24T12:11:56;30.75;;;20.40;;
76379;SDS011;65201;21.060;105.826;2023-04-24T12:14:23;32.75;;;19.88;;
76379;SDS011;65201;21.060;105.826;2023-04-24T12:16:55;33.30;;;20.97;;
76379;SDS011;65201;21.060;105.826;2023-04-24T12:19:28;27.80;;;20.13;;
76379;SDS011;65201;21.060;105.826;2023-04-24T12:22:02;34.47;;;20.42;;
76379;SDS011;65201;21.060;105.826;2023-04-24T12:24:29;31.67;;;19.63;;
76379;SDS011;65201;21.060;105.826;2023-04-24T12:26:56;31.00;;;19.52;;
76379;SDS011;65201;21.060;105.826;2023-04-24T12:29:23;32.43;;;20.57;;
76379;SDS011;65201;21.060;105.826;2023-04-24T12:31:50;30.27;;;20.20;;
76379;SDS011;65201;21.060;105.826;2023-04-24T12:34:20;33.33;;;20.50;;
76379;SDS011;65201;21.060;105.826;2023-04-24T12:36:47;30.55;;;19.13;;
76379;SDS011;65201;21.060;105.826;2023-04-24T12:39:16;25.80;;;19.13;;
76379;SDS011;65201;21.060;105.826;2023-04-24T12:41:56;28.00;;;19.17;;
76379;SDS011;65201;21.060;105.826;2023-04-24T12:44:29;27.05;;;19.45;;
76379;SDS011;65201;21.060;105.826;2023-04-24T12:46:56;25.35;;;19.13;;
76379;SDS011;65201;21.060;105.826;2023-04-24T12:49:22;28.35;;;18.95;;
76379;SDS011;65201;21.060;105.826;2023-04-24T12:51:49;26.05;;;18.63;;
76379;SDS011;65201;21.060;105.826;2023-04-24T12:54:15;28.40;;;18.97;;
76379;SDS011;65201;21.060;105.826;2023-04-24T12:56:41;29.75;;;18.80;;
76379;SDS011;65201;21.060;105.826;2023-04-24T12:59:07;26.55;;;18.98;;
76379;SDS011;65201;21.060;105.826;2023-04-24T13:01:36;24.55;;;17.98;;
76379;SDS011;65201;21.060;105.826;2023-04-24T13:04:03;25.60;;;18.10;;
76379;SDS011;65201;21.060;105.826;2023-04-24T13:06:29;25.40;;;17.77;;
76379;SDS011;65201;21.060;105.826;2023-04-24T13:08:56;22.67;;;17.38;;
76379;SDS011;65201;21.060;105.826;2023-04-24T13:11:23;29.73;;;18.42;;
76379;SDS011;65201;21.060;105.826;2023-04-24T13:13:50;24.52;;;17.67;;
76379;SDS011;65201;21.060;105.826;2023-04-24T13:16:39;24.23;;;17.58;;
76379;SDS011;65201;21.060;105.826;2023-04-24T13:19:04;26.97;;;17.57;;
76379;SDS011;65201;21.060;105.826;2023-04-24T13:21:31;23.20;;;17.20;;
76379;SDS011;65201;21.060;105.826;2023-04-24T13:23:57;24.75;;;17.45;;
76379;SDS011;65201;21.060;105.826;2023-04-24T13:26:24;25.75;;;18.23;;
76379;SDS011;65201;21.060;105.826;2023-04-24T13:29:10;25.65;;;17.05;;
76379;SDS011;65201;21.060;105.826;2023-04-24T13:31:39;22.10;;;16.90;;
76379;SDS011;65201;21.060;105.826;2023-04-24T13:34:05;25.77;;;17.27;;
76379;SDS011;65201;21.060;105.826;2023-04-24T13:36:31;26.08;;;16.52;;
76379;SDS011;65201;21.060;105.826;2023-04-24T13:38:58;25.25;;;17.13;;
76379;SDS011;65201;21.060;105.826;2023-04-24T13:41:24;25.08;;;17.17;;
76379;SDS011;65201;21.060;105.826;2023-04-24T13:43:50;23.10;;;16.20;;
76379;SDS011;65201;21.060;105.826;2023-04-24T13:46:20;22.20;;;16.17;;
76379;SDS011;65201;21.060;105.826;2023-04-24T13:48:49;19.85;;;15.90;;
76379;SDS011;65201;21.060;105.826;2023-04-24T13:51:18;25.58;;;16.30;;
76379;SDS011;65201;21.060;105.826;2023-04-24T13:53:44;20.75;;;16.10;;
76379;SDS011;65201;21.060;105.826;2023-04-24T13:56:14;22.57;;;15.90;;
76379;SDS011;65201;21.060;105.826;2023-04-24T13:58:40;21.77;;;15.90;;